Terminal Aerodrome Forecast
Issued by NWS

Home | Current Version | Previous Version | Text Only | Print | Product List | Glossary On
Versions: 1 2 3 4 5 6 7 8 9 10 11 12 13 14 15 16 17 18 19 20
000
FTUS42 KTBW 180500
TAFPIE
TAF
KPIE 180521Z 1806/1906 00000KT P6SM FEW020 FEW250
     FM181500 04005KT P6SM SCT030 SCT250
     FM181900 32006KT P6SM VCTS SCT035CB SCT150
     FM190100 VRB04KT P6SM SCT040 BKN250=

USA.gov is the U.S. government's official web portal to all federal, state and local government web resources and services.